createdAt,value
2023-12-31T00:00:49.238Z,10.60
2023-12-31T00:03:16.040Z,9.00
2023-12-31T00:08:12.410Z,8.90
2023-12-31T00:10:41.893Z,8.50
2023-12-31T00:13:08.837Z,9.80
2023-12-31T00:15:35.626Z,9.80
2023-12-31T00:18:02.484Z,9.20
2023-12-31T00:20:29.261Z,8.20
2023-12-31T00:23:03.432Z,8.80
2023-12-31T00:25:32.845Z,8.90
2023-12-31T00:28:00.848Z,8.50
2023-12-31T00:30:28.774Z,8.90
2023-12-31T00:32:55.732Z,9.00
2023-12-31T00:35:22.885Z,8.90
2023-12-31T00:37:51.908Z,8.90
2023-12-31T00:40:18.722Z,9.00
2023-12-31T00:42:45.518Z,9.20
2023-12-31T00:45:14.432Z,9.20
2023-12-31T00:47:43.479Z,8.90
2023-12-31T00:50:10.583Z,9.80
2023-12-31T00:52:37.379Z,8.80
2023-12-31T00:55:06.911Z,8.70
2023-12-31T00:57:36.009Z,8.70
2023-12-31T01:00:05.113Z,10.10
2023-12-31T01:02:31.792Z,8.80
2023-12-31T01:05:00.981Z,10.10
2023-12-31T01:07:27.850Z,8.10
2023-12-31T01:09:54.576Z,8.20
2023-12-31T01:12:23.555Z,8.60
2023-12-31T01:14:50.506Z,8.40
2023-12-31T01:17:17.208Z,8.80
2023-12-31T01:19:44.086Z,9.70
2023-12-31T01:24:38.302Z,8.70
2023-12-31T01:27:07.615Z,8.90
2023-12-31T01:29:38.411Z,8.60
2023-12-31T01:32:08.194Z,9.90
2023-12-31T01:34:37.217Z,8.50
2023-12-31T01:37:07.124Z,10.00
2023-12-31T01:42:01.055Z,8.60
2023-12-31T01:44:29.031Z,8.40
2023-12-31T01:46:56.261Z,8.30
2023-12-31T01:49:27.883Z,8.50
2023-12-31T01:51:54.812Z,9.20
2023-12-31T01:54:24.574Z,9.80
2023-12-31T01:56:53.097Z,8.30
2023-12-31T01:59:24.770Z,8.10
2023-12-31T02:01:56.617Z,8.20
2023-12-31T02:04:26.413Z,8.30
2023-12-31T02:06:53.319Z,8.20
2023-12-31T02:09:20.342Z,8.00
2023-12-31T02:11:49.355Z,8.00
2023-12-31T02:14:16.057Z,8.00
2023-12-31T02:16:45.392Z,8.00
2023-12-31T02:19:14.246Z,8.10
2023-12-31T02:24:12.397Z,8.10
2023-12-31T02:26:43.746Z,8.00
2023-12-31T02:29:10.568Z,8.40
2023-12-31T02:31:39.599Z,9.60
2023-12-31T02:34:09.108Z,8.10
2023-12-31T02:36:38.293Z,8.50
2023-12-31T02:39:07.429Z,8.60
2023-12-31T02:41:35.773Z,9.10
2023-12-31T02:44:03.291Z,8.60
2023-12-31T02:46:32.543Z,10.10
2023-12-31T02:48:59.368Z,9.70
2023-12-31T02:51:28.278Z,8.80
2023-12-31T02:53:57.256Z,8.70
2023-12-31T02:56:24.873Z,8.90
2023-12-31T02:58:54.158Z,9.60
2023-12-31T03:01:20.992Z,9.70
2023-12-31T03:03:47.808Z,8.20
2023-12-31T03:06:18.865Z,8.20
2023-12-31T03:08:45.654Z,10.10
2023-12-31T03:11:14.795Z,8.10
2023-12-31T03:13:41.678Z,9.80
2023-12-31T03:16:08.568Z,9.60
2023-12-31T03:18:35.449Z,8.80
2023-12-31T03:21:04.687Z,9.60
2023-12-31T03:23:31.531Z,9.10
2023-12-31T03:28:25.557Z,9.00
2023-12-31T03:30:54.486Z,8.90
2023-12-31T03:35:48.465Z,9.00
2023-12-31T03:38:15.194Z,8.70
2023-12-31T03:40:44.121Z,8.80
2023-12-31T03:43:15.865Z,8.70
2023-12-31T03:48:09.895Z,8.40
2023-12-31T03:50:37.458Z,9.60
2023-12-31T03:53:07.086Z,8.30
2023-12-31T03:55:34.050Z,8.20
2023-12-31T03:58:03.344Z,8.00
2023-12-31T04:00:35.364Z,8.10
2023-12-31T04:03:05.285Z,8.30
2023-12-31T04:05:32.536Z,7.90
2023-12-31T04:07:59.856Z,9.20
2023-12-31T04:10:26.783Z,8.20
2023-12-31T04:12:53.675Z,8.30
2023-12-31T04:15:22.620Z,8.40
2023-12-31T04:17:49.398Z,8.10
2023-12-31T04:20:16.245Z,8.10
2023-12-31T04:22:45.312Z,8.40
2023-12-31T04:25:14.416Z,8.60
2023-12-31T04:27:45.893Z,8.60
2023-12-31T04:30:15.977Z,8.80
2023-12-31T04:32:42.827Z,8.90
2023-12-31T04:35:09.829Z,8.30
2023-12-31T04:37:39.223Z,8.70
2023-12-31T04:40:06.940Z,8.70
2023-12-31T04:42:33.804Z,8.60
2023-12-31T04:45:08.359Z,8.10
2023-12-31T04:47:36.938Z,8.60
2023-12-31T04:50:03.954Z,9.40
2023-12-31T04:52:30.821Z,8.70
2023-12-31T04:54:57.653Z,8.50
2023-12-31T04:59:52.087Z,8.50
2023-12-31T05:02:24.799Z,8.10
2023-12-31T05:04:53.769Z,8.30
2023-12-31T05:07:20.493Z,8.60
2023-12-31T05:09:47.241Z,8.60
2023-12-31T05:12:13.966Z,8.30
2023-12-31T05:14:40.648Z,8.30
2023-12-31T05:17:09.833Z,10.20
2023-12-31T05:19:37.077Z,8.90
2023-12-31T05:22:03.885Z,8.20
2023-12-31T05:24:30.623Z,8.90
2023-12-31T05:26:57.329Z,8.60
2023-12-31T05:29:24.069Z,8.90
2023-12-31T05:31:53.432Z,8.40
2023-12-31T05:34:20.503Z,8.30
2023-12-31T05:36:47.335Z,8.50
2023-12-31T05:39:14.193Z,8.40
2023-12-31T05:41:45.285Z,8.80
2023-12-31T05:46:42.701Z,8.70
2023-12-31T05:49:12.044Z,8.60
2023-12-31T05:51:38.864Z,8.00
2023-12-31T05:54:10.061Z,9.10
2023-12-31T05:56:38.978Z,7.60
2023-12-31T05:59:05.733Z,7.70
2023-12-31T06:01:32.566Z,9.10
2023-12-31T06:04:02.205Z,7.50
2023-12-31T06:06:28.917Z,7.60
2023-12-31T06:08:55.638Z,7.90
2023-12-31T06:11:22.347Z,8.10
2023-12-31T06:13:51.198Z,7.90
2023-12-31T06:16:20.462Z,8.20
2023-12-31T06:18:49.671Z,9.10
2023-12-31T06:21:18.685Z,8.30
2023-12-31T06:23:50.070Z,8.40
2023-12-31T06:26:18.912Z,9.00
2023-12-31T06:28:48.189Z,8.50
2023-12-31T06:31:15.247Z,9.30
2023-12-31T06:33:42.093Z,8.50
2023-12-31T06:36:08.880Z,8.40
2023-12-31T06:38:39.194Z,8.30
2023-12-31T06:41:11.912Z,9.70
2023-12-31T06:43:39.975Z,8.70
2023-12-31T06:46:09.108Z,8.20
2023-12-31T06:48:38.629Z,8.80
2023-12-31T06:51:08.505Z,8.80
2023-12-31T06:56:13.044Z,8.60
2023-12-31T06:58:39.921Z,9.60
2023-12-31T07:03:34.021Z,8.70
2023-12-31T07:06:00.793Z,9.30
2023-12-31T07:08:27.562Z,9.00
2023-12-31T07:10:56.569Z,9.70
2023-12-31T07:13:25.797Z,10.40
2023-12-31T07:15:52.714Z,8.80
2023-12-31T07:18:19.538Z,8.80
2023-12-31T07:20:50.350Z,8.80
2023-12-31T07:23:17.185Z,9.70
2023-12-31T07:28:11.112Z,8.90
2023-12-31T07:30:37.903Z,10.00
2023-12-31T07:33:07.927Z,9.20
2023-12-31T07:35:37.301Z,8.90
2023-12-31T07:38:09.765Z,10.00
2023-12-31T07:40:39.042Z,8.40
2023-12-31T07:45:37.722Z,9.10
2023-12-31T07:48:06.934Z,9.00
2023-12-31T07:50:36.254Z,8.90
2023-12-31T07:53:02.944Z,8.80
2023-12-31T07:55:29.633Z,8.90
2023-12-31T07:57:58.473Z,8.70
2023-12-31T08:00:27.382Z,9.70
2023-12-31T08:02:54.099Z,9.10
2023-12-31T08:05:20.831Z,8.90
2023-12-31T08:07:47.603Z,8.50
2023-12-31T08:10:16.864Z,8.90
2023-12-31T08:12:46.200Z,8.90
2023-12-31T08:15:12.940Z,8.90
2023-12-31T08:17:39.729Z,9.90
2023-12-31T08:20:09.284Z,8.80
2023-12-31T08:22:38.367Z,9.30
2023-12-31T08:25:05.327Z,10.30
2023-12-31T08:27:32.129Z,9.40
2023-12-31T08:30:02.010Z,10.10
2023-12-31T08:34:57.031Z,9.00
2023-12-31T08:37:23.824Z,10.00
2023-12-31T08:39:52.890Z,9.30
2023-12-31T08:42:19.632Z,9.40
2023-12-31T08:44:56.608Z,10.50
2023-12-31T08:47:30.986Z,8.70
2023-12-31T08:49:57.749Z,9.10
2023-12-31T08:52:24.558Z,10.40
2023-12-31T08:54:51.355Z,10.30
2023-12-31T08:57:20.353Z,11.00
2023-12-31T08:59:49.552Z,9.90
2023-12-31T09:04:43.476Z,9.60
2023-12-31T09:07:12.839Z,10.10
2023-12-31T09:09:44.310Z,9.00
2023-12-31T09:12:10.990Z,11.20
2023-12-31T09:14:40.186Z,9.50
2023-12-31T09:17:09.217Z,10.10
2023-12-31T09:19:39.132Z,9.80
2023-12-31T09:22:08.602Z,10.40
2023-12-31T09:24:36.341Z,9.60
2023-12-31T09:27:11.528Z,9.80
2023-12-31T09:29:39.290Z,10.80
2023-12-31T09:32:06.253Z,10.90
2023-12-31T09:34:35.173Z,11.20
2023-12-31T09:37:02.056Z,11.60
2023-12-31T09:39:31.287Z,11.90
2023-12-31T09:42:03.075Z,12.30
2023-12-31T09:44:32.645Z,11.20
2023-12-31T09:47:10.807Z,12.00
2023-12-31T09:49:40.874Z,11.60
2023-12-31T09:52:09.071Z,12.30
2023-12-31T09:54:39.629Z,11.70
2023-12-31T09:57:07.387Z,12.20
2023-12-31T09:59:36.727Z,11.90
2023-12-31T10:02:08.565Z,12.10
2023-12-31T10:04:35.428Z,12.10
2023-12-31T10:07:04.724Z,12.20
2023-12-31T10:09:39.192Z,12.30
2023-12-31T10:12:06.334Z,12.40
2023-12-31T10:14:33.029Z,12.70
2023-12-31T10:16:59.937Z,12.20
2023-12-31T10:19:26.841Z,14.10
2023-12-31T10:21:57.202Z,12.90
2023-12-31T10:24:30.805Z,12.90
2023-12-31T10:27:06.174Z,13.40
2023-12-31T10:29:36.467Z,13.10
2023-12-31T10:32:04.704Z,13.70
2023-12-31T10:34:34.240Z,13.30
2023-12-31T10:37:08.751Z,13.10
2023-12-31T10:39:42.492Z,13.60
2023-12-31T10:42:09.458Z,13.60
2023-12-31T10:44:41.745Z,14.20
2023-12-31T10:47:12.708Z,13.50
2023-12-31T10:49:47.864Z,14.20
2023-12-31T10:52:16.315Z,13.60
2023-12-31T10:54:47.842Z,13.30
2023-12-31T10:57:16.268Z,14.00
2023-12-31T10:59:43.930Z,15.10
2023-12-31T11:02:16.961Z,15.40
2023-12-31T11:04:46.218Z,14.50
2023-12-31T11:07:21.984Z,14.40
2023-12-31T11:09:52.133Z,14.30
2023-12-31T11:12:19.695Z,14.20
2023-12-31T11:14:57.728Z,14.30
2023-12-31T11:17:42.630Z,14.40
2023-12-31T11:20:21.346Z,14.30
2023-12-31T11:23:12.543Z,13.90
2023-12-31T11:25:40.110Z,13.80
2023-12-31T11:28:09.443Z,14.40
2023-12-31T11:30:56.395Z,14.30
2023-12-31T11:33:34.958Z,14.00
2023-12-31T11:36:17.351Z,13.70
2023-12-31T11:39:02.445Z,13.20
2023-12-31T11:41:37.707Z,13.00
2023-12-31T11:44:04.879Z,12.90
2023-12-31T11:46:44.001Z,13.00
2023-12-31T11:49:14.232Z,13.30
2023-12-31T11:51:53.688Z,12.90
2023-12-31T11:54:38.573Z,13.10
2023-12-31T11:57:06.242Z,13.00
2023-12-31T11:59:40.825Z,12.90
2023-12-31T12:02:08.286Z,14.10
2023-12-31T12:04:37.841Z,13.10
2023-12-31T12:07:07.820Z,13.30
2023-12-31T12:09:37.967Z,12.90
2023-12-31T12:12:11.245Z,13.00
2023-12-31T12:14:37.991Z,12.90
2023-12-31T12:17:08.387Z,13.10
2023-12-31T12:19:38.453Z,13.30
2023-12-31T12:22:06.451Z,13.40
2023-12-31T12:24:33.459Z,13.50
2023-12-31T12:27:07.781Z,14.30
2023-12-31T12:29:36.287Z,13.10
2023-12-31T12:32:05.440Z,12.90
2023-12-31T12:34:32.373Z,12.70
2023-12-31T12:37:00.492Z,13.30
2023-12-31T12:39:27.359Z,12.60
2023-12-31T12:41:54.661Z,12.10
2023-12-31T12:44:24.903Z,13.60
2023-12-31T12:46:54.967Z,13.30
2023-12-31T12:49:23.953Z,12.80
2023-12-31T12:51:50.754Z,12.80
2023-12-31T12:54:18.145Z,13.00
2023-12-31T12:56:47.619Z,13.40
2023-12-31T12:59:14.432Z,13.00
2023-12-31T13:01:45.724Z,13.30
2023-12-31T13:04:13.831Z,13.40
2023-12-31T13:06:41.517Z,13.10
2023-12-31T13:09:08.835Z,12.90
2023-12-31T13:11:36.491Z,13.90
2023-12-31T13:14:08.351Z,13.10
2023-12-31T13:19:04.965Z,14.20
2023-12-31T13:21:34.149Z,12.30
2023-12-31T13:24:00.825Z,12.70
2023-12-31T13:26:29.957Z,12.10
2023-12-31T13:29:02.960Z,12.40
2023-12-31T13:31:31.251Z,12.30
2023-12-31T13:34:00.458Z,12.60
2023-12-31T13:36:27.334Z,13.10
2023-12-31T13:38:54.097Z,12.70
2023-12-31T13:41:23.766Z,12.70
2023-12-31T13:43:51.473Z,13.40
2023-12-31T13:46:18.243Z,12.60
2023-12-31T13:48:45.072Z,13.70
2023-12-31T13:51:14.134Z,13.90
2023-12-31T13:53:41.260Z,12.30
2023-12-31T13:56:08.212Z,13.10
2023-12-31T13:58:35.196Z,13.20
2023-12-31T14:01:02.095Z,14.40
2023-12-31T14:03:28.935Z,13.90
2023-12-31T14:05:58.783Z,13.60
2023-12-31T14:08:30.071Z,13.30
2023-12-31T14:10:56.832Z,13.00
2023-12-31T14:15:53.471Z,14.10
2023-12-31T14:18:22.627Z,14.20
2023-12-31T14:20:55.765Z,14.60
2023-12-31T14:23:22.552Z,13.70
2023-12-31T14:25:49.542Z,13.60
2023-12-31T14:28:16.523Z,15.20
2023-12-31T14:30:44.534Z,15.00
2023-12-31T14:33:14.532Z,14.30
2023-12-31T14:35:45.891Z,14.10
2023-12-31T14:38:17.790Z,13.80
2023-12-31T14:40:46.831Z,14.10
2023-12-31T14:43:13.629Z,13.60
2023-12-31T14:45:42.818Z,13.10
2023-12-31T14:48:11.777Z,13.30
2023-12-31T14:50:41.020Z,12.90
2023-12-31T14:55:40.582Z,13.10
2023-12-31T14:58:07.413Z,12.90
2023-12-31T15:00:34.379Z,13.10
2023-12-31T15:03:03.878Z,12.60
2023-12-31T15:05:36.554Z,14.10
2023-12-31T15:10:34.122Z,15.60
2023-12-31T15:13:06.934Z,14.80
2023-12-31T15:15:36.847Z,14.60
2023-12-31T15:18:07.225Z,13.70
2023-12-31T15:20:34.264Z,13.50
2023-12-31T15:23:03.746Z,13.50
2023-12-31T15:25:33.176Z,12.90
2023-12-31T15:28:05.851Z,12.90
2023-12-31T15:30:35.368Z,13.00
2023-12-31T15:33:04.575Z,12.80
2023-12-31T15:35:31.414Z,12.90
2023-12-31T15:38:08.190Z,12.80
2023-12-31T15:43:10.202Z,12.40
2023-12-31T15:45:38.073Z,12.70
2023-12-31T15:48:05.360Z,12.60
2023-12-31T15:50:32.603Z,12.20
2023-12-31T15:52:59.519Z,12.20
2023-12-31T15:55:31.384Z,12.50
2023-12-31T15:57:58.476Z,14.00
2023-12-31T16:00:27.900Z,12.00
2023-12-31T16:05:22.342Z,11.90
2023-12-31T16:07:50.062Z,11.90
2023-12-31T16:10:17.031Z,11.90
2023-12-31T16:12:46.466Z,11.60
2023-12-31T16:17:40.602Z,12.00
2023-12-31T16:20:13.358Z,12.30
2023-12-31T16:25:08.306Z,11.90
2023-12-31T16:27:37.441Z,11.80
2023-12-31T16:30:07.165Z,11.90
2023-12-31T16:32:41.294Z,11.80
2023-12-31T16:35:08.660Z,11.80
2023-12-31T16:37:37.584Z,12.00
2023-12-31T16:40:05.769Z,11.80
2023-12-31T16:42:34.935Z,11.70
2023-12-31T16:45:01.652Z,13.70
2023-12-31T16:47:31.030Z,11.50
2023-12-31T16:54:52.423Z,11.90
2023-12-31T17:02:16.236Z,12.00
2023-12-31T17:04:43.805Z,11.90
2023-12-31T17:07:12.567Z,11.80
2023-12-31T17:09:43.116Z,11.70
2023-12-31T17:12:12.038Z,11.80
2023-12-31T17:14:38.785Z,12.00
2023-12-31T17:17:07.991Z,12.70
2023-12-31T17:19:34.686Z,12.10
2023-12-31T17:24:28.570Z,11.80
2023-12-31T17:26:58.899Z,12.00
2023-12-31T17:29:25.912Z,11.80
2023-12-31T17:31:52.646Z,11.80
2023-12-31T17:34:19.374Z,11.70
2023-12-31T17:36:51.941Z,11.60
2023-12-31T17:39:23.737Z,11.90
2023-12-31T17:41:50.870Z,11.70
2023-12-31T17:49:12.157Z,12.40
2023-12-31T17:51:41.080Z,12.20
2023-12-31T17:56:37.675Z,12.40
2023-12-31T17:59:05.018Z,14.00
2023-12-31T18:01:36.487Z,12.20
2023-12-31T18:06:30.381Z,12.30
2023-12-31T18:08:57.172Z,13.70
2023-12-31T18:11:24.034Z,12.30
2023-12-31T18:13:50.901Z,12.30
2023-12-31T18:18:45.202Z,12.20
2023-12-31T18:21:14.609Z,14.20
2023-12-31T18:23:41.628Z,12.10
2023-12-31T18:26:10.619Z,12.00
2023-12-31T18:28:37.523Z,12.10
2023-12-31T18:31:04.380Z,13.10
2023-12-31T18:35:58.537Z,12.10
2023-12-31T18:40:53.336Z,12.10
2023-12-31T18:45:50.446Z,12.20
2023-12-31T18:48:17.249Z,12.40
2023-12-31T18:50:44.643Z,11.70
2023-12-31T18:53:11.474Z,12.00
2023-12-31T18:58:05.736Z,12.20
2023-12-31T19:03:00.470Z,11.90
2023-12-31T19:05:29.861Z,11.90
2023-12-31T19:07:58.931Z,12.80
2023-12-31T19:12:57.325Z,11.50
2023-12-31T19:15:28.893Z,10.60
2023-12-31T19:17:57.864Z,11.10
2023-12-31T19:20:26.885Z,11.10
2023-12-31T19:22:54.064Z,11.20
2023-12-31T19:25:24.548Z,13.50
2023-12-31T19:27:51.331Z,11.60
2023-12-31T19:30:21.060Z,11.50
2023-12-31T19:32:50.085Z,11.60
2023-12-31T19:35:17.606Z,11.50
2023-12-31T19:37:44.471Z,11.50
2023-12-31T19:40:14.259Z,11.50
2023-12-31T19:45:08.374Z,11.40
2023-12-31T19:50:05.072Z,11.70
2023-12-31T19:57:28.372Z,11.00
2023-12-31T20:02:29.934Z,11.10
2023-12-31T20:04:56.969Z,11.10
2023-12-31T20:07:23.711Z,10.50
2023-12-31T20:09:51.987Z,10.30
2023-12-31T20:12:19.167Z,10.50
2023-12-31T20:14:46.252Z,11.30
2023-12-31T20:17:15.656Z,10.30
2023-12-31T20:19:43.572Z,10.30
2023-12-31T20:22:10.472Z,10.20
2023-12-31T20:24:37.168Z,10.30
2023-12-31T20:27:04.103Z,10.30
2023-12-31T20:29:33.335Z,10.50
2023-12-31T20:32:02.617Z,10.30
2023-12-31T20:36:59.285Z,10.00
2023-12-31T20:39:28.265Z,11.30
2023-12-31T20:41:57.418Z,10.40
2023-12-31T20:44:24.152Z,10.00
2023-12-31T20:46:51.554Z,9.60
2023-12-31T20:49:18.634Z,9.40
2023-12-31T20:54:15.468Z,9.90
2023-12-31T20:56:42.234Z,10.00
2023-12-31T20:59:11.588Z,9.90
2023-12-31T21:01:41.978Z,9.70
2023-12-31T21:04:08.984Z,9.90
2023-12-31T21:06:38.128Z,10.00
2023-12-31T21:11:39.835Z,10.20
2023-12-31T21:14:08.780Z,11.60
2023-12-31T21:16:35.612Z,11.10
2023-12-31T21:19:02.441Z,10.30
2023-12-31T21:21:34.190Z,11.10
2023-12-31T21:24:01.082Z,10.50
2023-12-31T21:26:30.374Z,10.40
2023-12-31T21:28:57.108Z,10.40
2023-12-31T21:31:26.453Z,10.00
2023-12-31T21:33:55.570Z,9.50
2023-12-31T21:36:24.612Z,9.40
2023-12-31T21:38:51.333Z,10.10
2023-12-31T21:41:21.488Z,9.90
2023-12-31T21:43:53.409Z,9.40
2023-12-31T21:46:35.574Z,9.90
2023-12-31T21:49:07.137Z,9.80
2023-12-31T21:51:35.424Z,9.20
2023-12-31T21:54:02.683Z,9.10
2023-12-31T21:56:50.800Z,9.00
2023-12-31T21:59:18.740Z,10.20
2023-12-31T22:01:45.603Z,9.10
2023-12-31T22:04:14.949Z,10.70
2023-12-31T22:06:45.823Z,9.50
2023-12-31T22:09:14.864Z,11.00
2023-12-31T22:11:43.545Z,9.10
2023-12-31T22:14:13.061Z,9.30
2023-12-31T22:16:39.979Z,9.30
2023-12-31T22:19:06.803Z,10.50
2023-12-31T22:21:34.719Z,9.10
2023-12-31T22:24:01.459Z,8.90
2023-12-31T22:26:28.303Z,9.00
2023-12-31T22:28:57.997Z,9.50
2023-12-31T22:31:25.128Z,9.70
2023-12-31T22:33:52.021Z,8.30
2023-12-31T22:36:19.229Z,8.80
2023-12-31T22:38:46.385Z,8.90
2023-12-31T22:43:41.089Z,8.70
2023-12-31T22:48:34.989Z,8.30
2023-12-31T22:51:01.783Z,8.40
2023-12-31T22:53:31.016Z,8.30
2023-12-31T22:55:58.959Z,8.30
2023-12-31T22:58:26.112Z,7.80
2023-12-31T23:00:55.418Z,10.20
2023-12-31T23:03:22.197Z,8.30
2023-12-31T23:05:51.839Z,8.90
2023-12-31T23:08:21.233Z,8.20
2023-12-31T23:10:48.042Z,8.50
2023-12-31T23:13:14.804Z,8.10
2023-12-31T23:15:42.396Z,8.30
2023-12-31T23:18:14.218Z,8.20
2023-12-31T23:20:43.508Z,8.20
2023-12-31T23:25:37.921Z,8.20
2023-12-31T23:28:05.315Z,7.80
2023-12-31T23:30:32.362Z,8.20
2023-12-31T23:32:59.267Z,8.20
2023-12-31T23:35:26.087Z,10.20
2023-12-31T23:37:55.278Z,9.60
2023-12-31T23:40:22.253Z,7.90
2023-12-31T23:42:49.079Z,8.30
2023-12-31T23:47:43.237Z,8.50
2023-12-31T23:50:12.607Z,8.60
2023-12-31T23:52:41.927Z,10.10
2023-12-31T23:55:11.820Z,8.80
2023-12-31T23:57:43.200Z,9.00
